Time;durP1;ratioP1;P1;durP2;ratioP2;P2;SDS_P1;SDS_P2;PMS_P1;PMS_P2;Temp;Humidity;BMP_temperature;BMP_pressure;BME280_temperature;BME280_humidity;BME280_pressure;Samples;Min_cycle;Max_cycle;Signal;HPM_P1;HPM_P2
2024/02/18 00:02:00;;;;;;;1999.90;999.90;;;10.50;99.90;;;;;;5034127;28;20454;-72
2024/02/18 00:04:33;;;;;;;1999.90;999.90;;;10.50;99.90;;;;;;5033216;28;20928;-71
2024/02/18 00:06:59;;;;;;;1999.90;999.90;;;10.50;99.90;;;;;;5033105;28;20406;-73
2024/02/18 00:09:24;;;;;;;1999.90;999.90;;;10.50;99.90;;;;;;5033602;28;20940;-71
2024/02/18 00:11:50;;;;;;;1999.90;999.90;;;10.50;99.90;;;;;;5031960;28;20454;-71
2024/02/18 00:14:16;;;;;;;1999.90;999.90;;;10.50;99.90;;;;;;5032564;28;20665;-72
2024/02/18 00:16:42;;;;;;;1999.90;999.90;;;10.60;99.90;;;;;;5032768;28;20180;-71
2024/02/18 00:19:08;;;;;;;1999.90;999.90;;;10.50;99.90;;;;;;5031991;28;20646;-71
2024/02/18 00:21:34;;;;;;;1999.90;999.90;;;10.60;99.90;;;;;;5031677;28;20471;-71
2024/02/18 00:23:59;;;;;;;1999.90;999.90;;;10.60;99.90;;;;;;5031909;28;20824;-71
2024/02/18 00:26:27;;;;;;;1999.90;999.90;;;10.60;99.90;;;;;;5031971;28;20179;-72
2024/02/18 00:28:52;;;;;;;1999.90;999.90;;;10.70;99.90;;;;;;5031888;28;20169;-71
2024/02/18 00:31:18;;;;;;;1999.90;999.90;;;10.70;98.90;;;;;;5031568;28;20471;-71
2024/02/18 00:33:43;;;;;;;1999.90;999.90;;;10.70;99.00;;;;;;5031993;28;20214;-72
2024/02/18 00:36:09;;;;;;;1999.90;999.90;;;10.70;99.50;;;;;;5031889;28;20542;-71
2024/02/18 00:38:34;;;;;;;1999.90;999.90;;;10.70;99.00;;;;;;5031808;28;20636;-71
2024/02/18 00:41:02;;;;;;;1999.90;999.90;;;10.60;98.10;;;;;;5031577;28;20194;-71
2024/02/18 00:43:28;;;;;;;1999.90;999.90;;;10.60;97.90;;;;;;5033919;28;20172;-72
2024/02/18 00:45:54;;;;;;;1999.90;999.90;;;10.60;97.20;;;;;;5034712;28;20412;-72
2024/02/18 00:48:20;;;;;;;1999.90;999.90;;;10.60;97.30;;;;;;5033625;28;20176;-71
2024/02/18 00:50:45;;;;;;;1999.90;999.90;;;10.50;98.30;;;;;;5031400;28;20188;-71
2024/02/18 00:53:11;;;;;;;1999.90;999.90;;;10.60;99.20;;;;;;5031580;28;20454;-72
2024/02/18 00:55:42;;;;;;;1999.90;999.90;;;10.60;98.40;;;;;;5033136;28;20163;-72
2024/02/18 00:58:12;;;;;;;1999.90;999.90;;;10.50;99.70;;;;;;5031799;28;20196;-71
2024/02/18 01:00:41;;;;;;;1999.90;999.90;;;10.40;99.90;;;;;;5032914;28;20814;-71
2024/02/18 01:03:07;;;;;;;1999.90;999.90;;;10.40;99.90;;;;;;5032632;28;20406;-71
2024/02/18 01:05:33;;;;;;;1999.90;999.90;;;10.50;99.90;;;;;;5032175;28;20421;-71
2024/02/18 01:07:58;;;;;;;1999.90;999.90;;;10.50;99.90;;;;;;5031460;28;20417;-71
2024/02/18 01:10:24;;;;;;;1999.90;999.90;;;10.50;99.90;;;;;;5031156;28;20189;-71
2024/02/18 01:12:50;;;;;;;1999.90;999.90;;;10.50;99.90;;;;;;5031454;28;20207;-72
2024/02/18 01:15:16;;;;;;;1999.90;999.90;;;10.40;99.90;;;;;;5032124;28;20244;-72
2024/02/18 01:17:42;;;;;;;1999.90;999.90;;;10.50;99.90;;;;;;5035273;28;20166;-72
2024/02/18 01:20:08;;;;;;;1999.90;999.90;;;10.40;99.90;;;;;;5031088;28;20492;-71
2024/02/18 01:22:34;;;;;;;1999.90;999.90;;;10.40;99.90;;;;;;5034375;28;20417;-72
2024/02/18 01:25:00;;;;;;;1999.90;999.90;;;10.40;99.90;;;;;;5035854;28;20416;-73
2024/02/18 01:27:26;;;;;;;1999.90;999.90;;;10.50;99.90;;;;;;5039749;28;20418;-73
2024/02/18 01:29:51;;;;;;;1999.90;999.90;;;10.10;99.90;;;;;;5039812;28;20609;-73
2024/02/18 01:32:17;;;;;;;1999.90;999.90;;;10.50;99.90;;;;;;5039144;28;20206;-73
2024/02/18 01:34:43;;;;;;;1999.90;999.90;;;10.50;99.90;;;;;;5036833;28;20172;-72
2024/02/18 01:37:08;;;;;;;1999.90;999.90;;;10.50;99.40;;;;;;5035810;28;20578;-72
2024/02/18 01:39:34;;;;;;;1999.90;999.90;;;10.50;96.80;;;;;;5034878;28;20171;-72
2024/02/18 01:42:00;;;;;;;1999.90;999.90;;;10.50;95.50;;;;;;5034752;28;20194;-72
2024/02/18 01:44:26;;;;;;;1999.90;999.90;;;10.50;94.10;;;;;;5034717;28;20907;-72
2024/02/18 01:46:52;;;;;;;1999.90;999.90;;;10.50;92.90;;;;;;5034719;28;20174;-72
2024/02/18 01:49:18;;;;;;;1999.90;999.90;;;10.40;92.90;;;;;;5037196;28;20213;-73
2024/02/18 01:51:45;;;;;;;1999.90;999.90;;;10.40;93.60;;;;;;5035453;28;20454;-72
2024/02/18 01:54:11;;;;;;;1999.90;999.90;;;10.40;92.60;;;;;;5034603;28;20406;-72
2024/02/18 01:56:38;;;;;;;1999.90;999.90;;;10.40;93.40;;;;;;5036043;28;20405;-73
2024/02/18 01:59:04;;;;;;;1999.90;999.90;;;10.30;93.00;;;;;;5037866;28;20427;-73
2024/02/18 02:01:30;;;;;;;1999.90;999.90;;;10.30;92.90;;;;;;5034924;28;20450;-72
2024/02/18 02:03:57;;;;;;;1999.90;999.90;;;10.30;95.20;;;;;;5034989;28;20698;-72
2024/02/18 02:06:23;;;;;;;1999.90;999.90;;;10.20;95.90;;;;;;5036673;28;20314;-72
2024/02/18 02:08:49;;;;;;;1999.90;999.90;;;10.10;97.40;;;;;;5036042;28;20414;-72
2024/02/18 02:11:15;;;;;;;1999.90;999.90;;;10.10;98.90;;;;;;5037601;28;20953;-72
2024/02/18 02:13:41;;;;;;;1999.90;999.90;;;10.00;98.60;;;;;;5037875;28;20402;-72
2024/02/18 02:16:06;;;;;;;1999.90;999.90;;;10.00;99.80;;;;;;5035624;28;20544;-73
2024/02/18 02:18:33;;;;;;;1999.90;999.90;;;10.00;99.90;;;;;;5035502;28;20244;-72
2024/02/18 02:20:58;;;;;;;1999.90;999.90;;;9.90;99.90;;;;;;5033836;28;20270;-72
2024/02/18 02:23:24;;;;;;;1999.90;999.90;;;9.90;99.90;;;;;;5034041;28;20480;-72
2024/02/18 02:25:51;;;;;;;1999.90;999.90;;;9.80;99.90;;;;;;5034034;28;20623;-72
2024/02/18 02:28:28;;;;;;;1999.90;999.90;;;9.80;99.90;;;;;;5034007;28;20174;-72
2024/02/18 02:30:55;;;;;;;1999.90;999.90;;;9.80;99.90;;;;;;5033697;28;20431;-72
2024/02/18 02:33:22;;;;;;;1999.90;999.90;;;9.80;99.90;;;;;;5033892;28;20409;-72
2024/02/18 02:35:48;;;;;;;1999.90;999.90;;;9.80;99.30;;;;;;5033818;28;20401;-72
2024/02/18 02:38:14;;;;;;;1999.90;999.90;;;9.70;97.90;;;;;;5033500;28;20417;-71
2024/02/18 02:40:40;;;;;;;1999.90;999.90;;;9.90;97.70;;;;;;5036073;28;20190;-71
2024/02/18 02:43:05;;;;;;;1999.90;999.90;;;9.70;96.80;;;;;;5036997;28;20410;-72
2024/02/18 02:45:32;;;;;;;1999.90;999.90;;;9.70;96.60;;;;;;5033566;28;20413;-71
2024/02/18 02:47:58;;;;;;;1999.90;999.90;;;9.50;96.80;;;;;;5033696;28;20692;-71
2024/02/18 02:50:23;;;;;;;1999.90;999.90;;;9.60;96.40;;;;;;5033346;28;20466;-72
2024/02/18 02:52:49;;;;;;;1999.90;999.90;;;9.50;95.50;;;;;;5033445;28;20197;-72
2024/02/18 02:55:15;;;;;;;1999.90;999.90;;;9.60;94.30;;;;;;5033516;28;20170;-72
2024/02/18 02:57:40;;;;;;;1999.90;999.90;;;9.50;94.40;;;;;;5033354;28;20178;-72
2024/02/18 03:00:10;;;;;;;1999.90;999.90;;;9.60;99.90;;;;;;5035646;28;20456;-72
2024/02/18 03:02:39;;;;;;;1999.90;999.90;;;9.60;96.20;;;;;;5037378;28;20186;-72
2024/02/18 03:05:05;;;;;;;1999.90;999.90;;;9.60;95.70;;;;;;5035685;28;20427;-73
2024/02/18 03:07:31;;;;;;;1999.90;999.90;;;9.60;95.50;;;;;;5038549;28;20497;-73
2024/02/18 03:09:57;;;;;;;1999.90;999.90;;;9.60;99.90;;;;;;5037090;28;20916;-73
2024/02/18 03:12:23;;;;;;;1999.90;999.90;;;9.60;92.50;;;;;;5036496;28;20449;-73
2024/02/18 03:14:49;;;;;;;1999.90;999.90;;;9.50;93.10;;;;;;5036493;28;20521;-72
2024/02/18 03:17:15;;;;;;;1999.90;999.90;;;9.50;93.70;;;;;;5034094;28;20420;-72
2024/02/18 03:19:40;;;;;;;1999.90;999.90;;;9.50;94.50;;;;;;5032831;28;20405;-72
2024/02/18 03:22:06;;;;;;;1999.90;999.90;;;9.40;97.20;;;;;;5037342;28;20195;-72
2024/02/18 03:24:32;;;;;;;1999.90;999.90;;;9.40;98.10;;;;;;5034683;28;20293;-72
2024/02/18 03:27:00;;;;;;;1999.90;999.90;;;9.40;98.70;;;;;;5032854;28;20176;-72
2024/02/18 03:29:25;;;;;;;1999.90;999.90;;;9.50;98.20;;;;;;5034470;28;20188;-72
2024/02/18 03:31:52;;;;;;;1999.90;999.90;;;9.40;99.50;;;;;;5035354;28;20461;-72
2024/02/18 03:34:18;;;;;;;1999.90;999.90;;;9.30;99.90;;;;;;5037707;28;20179;-72
2024/02/18 03:36:43;;;;;;;1999.90;999.90;;;9.30;99.90;;;;;;5033991;28;20411;-72
2024/02/18 03:39:09;;;;;;;1999.90;999.90;;;9.40;99.90;;;;;;5032670;28;20458;-72
2024/02/18 03:41:35;;;;;;;1999.90;999.90;;;9.20;99.90;;;;;;5035622;28;20202;-73
2024/02/18 03:44:00;;;;;;;1999.90;999.90;;;9.40;99.90;;;;;;5037609;28;20537;-72
2024/02/18 03:46:26;;;;;;;1999.90;999.90;;;9.40;99.90;;;;;;5037761;28;20503;-72
2024/02/18 03:48:51;;;;;;;1999.90;999.90;;;9.50;99.90;;;;;;5032380;28;20258;-73
2024/02/18 03:51:17;;;;;;;1999.90;999.90;;;9.80;99.80;;;;;;5034735;28;20206;-72
2024/02/18 03:53:43;;;;;;;1999.90;999.90;;;9.70;99.90;;;;;;5032581;28;20171;-72
2024/02/18 03:56:08;;;;;;;1999.90;999.90;;;9.90;98.40;;;;;;5033449;28;20167;-73
2024/02/18 03:58:34;;;;;;;1999.90;999.90;;;10.00;93.30;;;;;;5036279;28;20171;-72
2024/02/18 04:01:00;;;;;;;1999.90;999.90;;;9.80;85.60;;;;;;5035071;28;20203;-73
2024/02/18 04:03:25;;;;;;;1999.90;999.90;;;10.00;76.00;;;;;;5038644;28;20751;-72
2024/02/18 04:05:51;;;;;;;1999.90;999.90;;;10.00;72.30;;;;;;5032202;28;20165;-72
2024/02/18 04:08:17;;;;;;;1999.90;999.90;;;10.00;68.70;;;;;;5032223;28;20172;-72
2024/02/18 04:10:42;;;;;;;1999.90;999.90;;;9.90;68.90;;;;;;5031838;28;20190;-72
2024/02/18 04:13:08;;;;;;;1999.90;999.90;;;9.90;65.90;;;;;;5034141;28;20196;-72
2024/02/18 04:15:33;;;;;;;1999.90;999.90;;;10.00;62.20;;;;;;5052385;22;20227;-69
2024/02/18 04:17:59;;;;;;;1999.90;999.90;;;10.00;64.50;;;;;;5052038;28;20245;-68
2024/02/18 04:20:25;;;;;;;1999.90;999.90;;;10.00;66.50;;;;;;5051960;28;20249;-69
2024/02/18 04:22:50;;;;;;;1999.90;999.90;;;10.10;60.40;;;;;;5051962;28;20224;-69
2024/02/18 04:25:16;;;;;;;1999.90;999.90;;;10.20;89.60;;;;;;5051962;28;20198;-70
2024/02/18 04:27:42;;;;;;;1999.90;999.90;;;10.00;61.70;;;;;;5051993;28;20579;-69
2024/02/18 04:30:08;;;;;;;1999.90;999.90;;;10.10;63.30;;;;;;5051661;28;20207;-69
2024/02/18 04:32:33;;;;;;;1999.90;999.90;;;10.10;60.80;;;;;;5051798;28;20208;-69
2024/02/18 04:34:59;;;;;;;1999.90;999.90;;;10.20;58.20;;;;;;5051852;28;20409;-69
2024/02/18 04:37:25;;;;;;;1999.90;999.90;;;10.00;89.50;;;;;;5051727;28;20190;-69
2024/02/18 04:39:50;;;;;;;1999.90;999.90;;;10.10;60.60;;;;;;5051492;28;20170;-69
2024/02/18 04:42:16;;;;;;;1999.90;999.90;;;10.10;60.80;;;;;;5051646;28;20174;-68
2024/02/18 04:44:42;;;;;;;1999.90;999.90;;;10.10;63.70;;;;;;5051761;28;20182;-68
2024/02/18 04:47:07;;;;;;;1999.90;999.90;;;10.00;64.90;;;;;;5051872;28;20455;-69
2024/02/18 04:49:33;;;;;;;1999.90;999.90;;;10.00;67.90;;;;;;5052010;28;20174;-69
2024/02/18 04:52:00;;;;;;;1999.90;999.90;;;10.10;93.60;;;;;;5050793;28;20198;-69
2024/02/18 04:54:26;;;;;;;1999.90;999.90;;;;;;;;;;5051621;28;20166;-69
2024/02/18 04:56:52;;;;;;;1999.90;999.90;;;9.90;75.40;;;;;;5051258;28;20432;-69
2024/02/18 04:59:18;;;;;;;1999.90;999.90;;;9.80;79.00;;;;;;5051431;28;20775;-71
2024/02/18 05:01:49;;;;;;;1999.90;999.90;;;9.80;81.90;;;;;;5053647;28;20179;-70
2024/02/18 05:04:15;;;;;;;1999.90;999.90;;;9.80;86.80;;;;;;5055507;28;20255;-69
2024/02/18 05:06:47;;;;;;;1999.90;999.90;;;9.80;88.50;;;;;;5055372;28;20502;-69
2024/02/18 05:09:13;;;;;;;1999.90;999.90;;;9.80;89.20;;;;;;5055369;28;20167;-69
2024/02/18 05:11:39;;;;;;;1999.90;999.90;;;9.80;90.80;;;;;;5054745;28;20452;-69
2024/02/18 05:14:04;;;;;;;1999.90;999.90;;;9.80;89.70;;;;;;5054842;28;20254;-70
2024/02/18 05:16:30;;;;;;;1999.90;999.90;;;9.90;81.00;;;;;;5055146;28;20209;-69
2024/02/18 05:18:56;;;;;;;1999.90;999.90;;;9.80;80.00;;;;;;5055251;28;20167;-69
2024/02/18 05:21:21;;;;;;;1999.90;999.90;;;9.90;77.40;;;;;;5054961;28;20166;-69
2024/02/18 05:23:47;;;;;;;1999.90;999.90;;;9.80;81.00;;;;;;5055126;28;20170;-69
2024/02/18 05:26:13;;;;;;;1999.90;999.90;;;9.70;80.90;;;;;;5054984;28;20216;-69
2024/02/18 05:28:38;;;;;;;1999.90;999.90;;;9.60;79.20;;;;;;5055048;28;20177;-69
2024/02/18 05:31:20;;;;;;;1999.90;999.90;;;9.70;82.30;;;;;;5054798;28;20174;-69
2024/02/18 05:33:46;;;;;;;1999.90;999.90;;;9.50;83.90;;;;;;5055061;28;20742;-69
2024/02/18 05:36:13;;;;;;;1999.90;999.90;;;9.50;84.30;;;;;;5054921;28;20428;-69
2024/02/18 05:38:40;;;;;;;1999.90;999.90;;;9.50;83.80;;;;;;5054718;28;20789;-69
2024/02/18 05:41:06;;;;;;;1999.90;999.90;;;9.60;84.60;;;;;;5054625;28;20414;-69
2024/02/18 05:43:31;;;;;;;1999.90;999.90;;;9.50;85.00;;;;;;5054753;28;20977;-69
2024/02/18 05:45:57;;;;;;;1999.90;999.90;;;9.60;83.80;;;;;;5054699;28;20194;-69
2024/02/18 05:48:22;;;;;;;1999.90;999.90;;;9.60;84.00;;;;;;5054730;28;20646;-68
2024/02/18 05:50:48;;;;;;;1999.90;999.90;;;9.70;85.60;;;;;;5054035;28;20165;-69
2024/02/18 05:53:14;;;;;;;1999.90;999.90;;;9.80;81.00;;;;;;5054225;28;20195;-69
2024/02/18 05:55:39;;;;;;;1999.90;999.90;;;9.80;78.40;;;;;;5054167;28;20238;-69
2024/02/18 05:58:06;;;;;;;1999.90;999.90;;;9.80;74.80;;;;;;5054789;28;20165;-69
2024/02/18 06:00:32;;;;;;;1999.90;999.90;;;9.70;74.90;;;;;;5053019;28;20168;-69
2024/02/18 06:02:57;;;;;;;1999.90;999.90;;;9.90;74.20;;;;;;5054574;28;20912;-69
2024/02/18 06:05:23;;;;;;;1999.90;999.90;;;9.70;77.80;;;;;;5054713;28;20198;-69
2024/02/18 06:07:48;;;;;;;1999.90;999.90;;;9.60;79.40;;;;;;5054553;28;20176;-69
2024/02/18 06:10:14;;;;;;;1999.90;999.90;;;9.60;82.40;;;;;;5054383;28;20169;-69
2024/02/18 06:12:43;;;;;;;1999.90;999.90;;;9.70;85.40;;;;;;5054467;28;20193;-69
2024/02/18 06:15:09;;;;;;;1999.90;999.90;;;9.80;99.90;;;;;;5055583;28;20507;-69
2024/02/18 06:17:35;;;;;;;1999.90;999.90;;;9.60;88.60;;;;;;5056316;28;20899;-69
2024/02/18 06:20:02;;;;;;;1999.90;999.90;;;9.60;89.90;;;;;;5057166;28;20414;-69
2024/02/18 06:22:28;;;;;;;1999.90;999.90;;;9.60;90.20;;;;;;5056804;28;20178;-70
2024/02/18 06:24:53;;;;;;;1999.90;999.90;;;9.60;90.70;;;;;;5055934;28;20497;-68
2024/02/18 06:27:19;;;;;;;1999.90;999.90;;;9.60;91.20;;;;;;5052611;28;20569;-71
2024/02/18 06:29:45;;;;;;;1999.90;999.90;;;9.70;92.00;;;;;;5053698;28;20584;-70
2024/02/18 06:32:11;;;;;;;1999.90;999.90;;;9.80;87.90;;;;;;5053826;28;20185;-70
2024/02/18 06:34:37;;;;;;;1999.90;999.90;;;9.60;87.40;;;;;;5053879;28;20158;-70
2024/02/18 06:37:03;;;;;;;1999.90;999.90;;;9.70;86.00;;;;;;5053670;28;20429;-69
2024/02/18 06:39:28;;;;;;;1999.90;999.90;;;9.60;89.80;;;;;;5052395;28;20175;-70
2024/02/18 06:41:54;;;;;;;1999.90;999.90;;;9.50;90.70;;;;;;5053487;28;20173;-70
2024/02/18 06:44:21;;;;;;;1999.90;999.90;;;9.50;92.30;;;;;;5053712;28;20512;-69
2024/02/18 06:46:46;;;;;;;1999.90;999.90;;;9.40;92.90;;;;;;5053467;28;20520;-70
2024/02/18 06:49:12;;;;;;;1999.90;999.90;;;9.40;94.00;;;;;;5053568;28;20436;-69
2024/02/18 06:51:37;;;;;;;1999.90;999.90;;;9.20;95.70;;;;;;5053056;28;20227;-71
2024/02/18 06:54:03;;;;;;;1999.90;999.90;;;9.10;99.90;;;;;;5053409;28;20191;-69
2024/02/18 06:56:29;;;;;;;1999.90;999.90;;;9.10;99.90;;;;;;5053399;28;20558;-69
2024/02/18 06:58:54;;;;;;;1999.90;999.90;;;9.00;99.90;;;;;;5053380;28;20169;-69
2024/02/18 07:01:20;;;;;;;1999.90;999.90;;;9.10;99.10;;;;;;5053144;28;20180;-71
2024/02/18 07:03:46;;;;;;;1999.90;999.90;;;9.10;99.90;;;;;;5053305;28;20573;-69
2024/02/18 07:06:11;;;;;;;1999.90;999.90;;;9.20;99.90;;;;;;5053093;28;20713;-69
2024/02/18 07:08:37;;;;;;;1999.90;999.90;;;9.20;99.90;;;;;;5053131;28;20704;-70
2024/02/18 07:11:03;;;;;;;1999.90;999.90;;;9.20;99.90;;;;;;5052795;28;20181;-69
2024/02/18 07:13:29;;;;;;;1999.90;999.90;;;9.20;99.90;;;;;;5053117;28;20547;-70
2024/02/18 07:15:54;;;;;;;1999.90;999.90;;;9.30;99.90;;;;;;5052846;28;20451;-70
2024/02/18 07:18:21;;;;;;;1999.90;999.90;;;9.40;99.90;;;;;;5053005;28;20170;-71
2024/02/18 07:20:47;;;;;;;1999.90;999.90;;;9.30;99.90;;;;;;5052669;28;20646;-70
2024/02/18 07:23:12;;;;;;;1999.90;999.90;;;9.30;99.90;;;;;;5052729;28;20408;-70
2024/02/18 07:25:40;;;;;;;1999.90;999.90;;;9.20;99.90;;;;;;5053326;28;20196;-70
2024/02/18 07:28:06;;;;;;;1999.90;999.90;;;9.00;99.90;;;;;;5053847;28;20162;-70
2024/02/18 07:30:32;;;;;;;1999.90;999.90;;;;;;;;;;5053377;28;20419;-70
2024/02/18 07:32:57;;;;;;;1999.90;999.90;;;9.10;99.90;;;;;;5053754;28;20188;-69
2024/02/18 07:35:23;;;;;;;1999.90;999.90;;;9.10;99.90;;;;;;5053447;28;20423;-69
2024/02/18 07:37:48;;;;;;;1999.90;999.90;;;9.20;99.90;;;;;;5052125;28;20165;-70
2024/02/18 07:40:15;;;;;;;1999.90;999.90;;;9.00;99.90;;;;;;5052991;28;20184;-70
2024/02/18 07:42:43;;;;;;;1999.90;999.90;;;9.10;99.90;;;;;;5053323;28;20173;-70
2024/02/18 07:45:09;;;;;;;1999.90;999.90;;;9.30;99.90;;;;;;5051858;28;20412;-70
2024/02/18 07:47:34;;;;;;;1999.90;999.90;;;9.20;99.90;;;;;;5053047;28;20451;-70
2024/02/18 07:50:00;;;;;;;1999.90;999.90;;;9.20;99.90;;;;;;5052867;28;21135;-69
2024/02/18 07:52:26;;;;;;;1999.90;999.90;;;9.20;99.90;;;;;;5052700;28;20228;-69
2024/02/18 07:54:51;;;;;;;1999.90;999.90;;;9.10;99.90;;;;;;5052641;28;20176;-70
2024/02/18 07:57:17;;;;;;;1999.90;999.90;;;9.20;99.90;;;;;;5051003;28;20189;-69
2024/02/18 07:59:42;;;;;;;1999.90;999.90;;;9.00;99.90;;;;;;5052299;28;20581;-69
2024/02/18 08:02:09;;;;;;;1999.90;999.90;;;9.20;99.90;;;;;;5052337;28;20253;-69
2024/02/18 08:04:35;;;;;;;1999.90;999.90;;;9.10;99.90;;;;;;5052232;28;20176;-69
2024/02/18 08:07:00;;;;;;;1999.90;999.90;;;9.40;99.90;;;;;;5052021;28;20419;-69
2024/02/18 08:09:26;;;;;;;1999.90;999.90;;;9.30;99.90;;;;;;5052144;28;20165;-70
2024/02/18 08:11:52;;;;;;;1999.90;999.90;;;9.30;99.90;;;;;;5051762;28;20193;-70
2024/02/18 08:14:17;;;;;;;1999.90;999.90;;;9.30;99.90;;;;;;5051992;28;20814;-70
2024/02/18 08:16:43;;;;;;;1999.90;999.90;;;9.50;99.90;;;;;;5051792;28;20212;-71
2024/02/18 08:19:09;;;;;;;1999.90;999.90;;;9.30;99.90;;;;;;5051951;28;20164;-70
2024/02/18 08:21:34;;;;;;;1999.90;999.90;;;9.20;99.90;;;;;;5051702;28;20224;-70
2024/02/18 08:24:00;;;;;;;1999.90;999.90;;;9.30;99.90;;;;;;5051776;28;20168;-70
2024/02/18 08:26:26;;;;;;;1999.90;999.90;;;9.30;99.90;;;;;;5051796;28;20194;-70
2024/02/18 08:28:53;;;;;;;1999.90;999.90;;;9.50;99.60;;;;;;5051853;28;20532;-70
2024/02/18 08:31:19;;;;;;;1999.90;999.90;;;9.50;98.30;;;;;;5050214;28;20416;-69
2024/02/18 08:33:46;;;;;;;1999.90;999.90;;;9.50;96.10;;;;;;5051769;28;20806;-70
2024/02/18 08:36:12;;;;;;;1999.90;999.90;;;9.60;99.90;;;;;;5051098;28;20425;-71
2024/02/18 08:38:39;;;;;;;1999.90;999.90;;;9.50;94.00;;;;;;5051719;28;20401;-70
2024/02/18 08:41:05;;;;;;;1999.90;999.90;;;9.50;94.10;;;;;;5051236;28;20456;-70
2024/02/18 08:43:32;;;;;;;1999.90;999.90;;;9.60;93.80;;;;;;5051486;28;20404;-70
2024/02/18 08:45:57;;;;;;;1999.90;999.90;;;9.60;91.60;;;;;;5051625;28;20489;-70
2024/02/18 08:48:23;;;;;;;1999.90;999.90;;;9.60;88.10;;;;;;5051673;28;20496;-70
2024/02/18 08:50:49;;;;;;;1999.90;999.90;;;9.70;99.90;;;;;;5051511;28;20181;-70
2024/02/18 08:53:15;;;;;;;1999.90;999.90;;;9.70;89.10;;;;;;5051419;28;20207;-70
2024/02/18 08:55:40;;;;;;;1999.90;999.90;;;10.00;86.00;;;;;;5050271;28;20186;-70
2024/02/18 08:58:06;;;;;;;1999.90;999.90;;;9.90;83.50;;;;;;5051539;28;20785;-70
2024/02/18 09:00:31;;;;;;;1999.90;999.90;;;9.90;84.00;;;;;;5051301;28;20179;-70
2024/02/18 09:02:57;;;;;;;1999.90;999.90;;;10.10;83.90;;;;;;5051473;28;20183;-70
2024/02/18 09:05:23;;;;;;;1999.90;999.90;;;10.00;77.30;;;;;;5051458;28;20692;-70
2024/02/18 09:07:49;;;;;;;1999.90;999.90;;;10.00;68.30;;;;;;5051261;28;20173;-70
2024/02/18 09:10:14;;;;;;;1999.90;999.90;;;10.00;66.50;;;;;;5050822;28;20660;-71
2024/02/18 09:12:40;;;;;;;1999.90;999.90;;;10.10;69.30;;;;;;5051282;28;20504;-70
2024/02/18 09:15:09;;;;;;;1999.90;999.90;;;10.50;94.50;;;;;;5051344;28;20812;-70
2024/02/18 09:17:36;;;;;;;1999.90;999.90;;;10.10;70.80;;;;;;5051328;28;20262;-70
2024/02/18 09:20:02;;;;;;;1999.90;999.90;;;10.00;87.80;;;;;;5051069;28;20449;-70
2024/02/18 09:22:27;;;;;;;1999.90;999.90;;;10.20;60.60;;;;;;5051346;28;20409;-69
2024/02/18 09:24:53;;;;;;;1999.90;999.90;;;10.20;59.30;;;;;;5051184;28;20398;-70
2024/02/18 09:27:18;;;;;;;1999.90;999.90;;;10.20;63.30;;;;;;5051213;28;20200;-70
2024/02/18 09:29:44;;;;;;;1999.90;999.90;;;10.30;89.20;;;;;;5051020;28;20174;-70
2024/02/18 09:32:10;;;;;;;1999.90;999.90;;;10.20;58.20;;;;;;5051185;28;20198;-70
2024/02/18 09:34:37;;;;;;;1999.90;999.90;;;10.00;84.10;;;;;;5051174;28;20174;-70
2024/02/18 09:37:03;;;;;;;1999.90;999.90;;;10.10;57.10;;;;;;5051020;28;20181;-70
2024/02/18 09:39:28;;;;;;;1999.90;999.90;;;10.10;59.30;;;;;;5051239;28;20414;-70
2024/02/18 09:41:58;;;;;;;1999.90;999.90;;;9.90;94.40;;;;;;5050859;28;20422;-70
2024/02/18 09:44:26;;;;;;;1999.90;999.90;;;10.20;70.60;;;;;;5051029;28;20251;-70
2024/02/18 09:46:53;;;;;;;1999.90;999.90;;;10.20;36.00;;;;;;5051585;28;20798;-71
2024/02/18 09:49:20;;;;;;;1999.90;999.90;;;10.20;99.90;;;;;;5053396;28;20420;-72
2024/02/18 09:51:48;;;;;;;1999.90;999.90;;;10.10;99.90;;;;;;5054413;28;20456;-72
2024/02/18 09:54:14;;;;;;;1999.90;999.90;;;10.10;99.90;;;;;;5054526;28;20412;-72
2024/02/18 09:56:40;;;;;;;1999.90;999.90;;;10.10;1.00;;;;;;5054570;28;20476;-70
2024/02/18 09:59:08;;;;;;;1999.90;999.90;;;10.10;1.00;;;;;;5054516;28;20908;-70
2024/02/18 10:01:36;;;;;;;1999.90;999.90;;;10.00;99.90;;;;;;5054207;28;20171;-70
2024/02/18 10:04:02;;;;;;;1999.90;999.90;;;10.00;1.00;;;;;;5054351;28;20410;-70
2024/02/18 10:06:28;;;;;;;1999.90;999.90;;;9.90;99.90;;;;;;5054383;28;20443;-70
2024/02/18 10:08:57;;;;;;;1999.90;999.90;;;9.90;10.10;;;;;;5054442;28;20173;-71
2024/02/18 10:11:23;;;;;;;1999.90;999.90;;;9.90;99.90;;;;;;5054055;28;20196;-69
2024/02/18 10:13:51;;;;;;;1999.90;999.90;;;9.90;1.00;;;;;;5050762;28;20416;-71
2024/02/18 10:16:17;;;;;;;1999.90;999.90;;;9.90;99.90;;;;;;5091087;22;20227;-72
2024/02/18 10:18:46;;;;;;;1999.90;999.90;;;9.80;1.00;;;;;;5046518;28;20836;-71
2024/02/18 10:21:14;;;;;;;1999.90;999.90;;;9.80;1.00;;;;;;5041748;28;20434;-71
2024/02/18 10:23:43;;;;;;;1999.90;999.90;;;9.90;1.00;;;;;;5042469;28;20485;-71
2024/02/18 10:26:09;;;;;;;1999.90;999.90;;;9.40;99.90;;;;;;5039975;28;20433;-71
2024/02/18 10:28:35;;;;;;;1999.90;999.90;;;9.60;99.90;;;;;;5038254;28;20440;-70
2024/02/18 10:31:07;;;;;;;1999.90;999.90;;;9.50;1.00;;;;;;5033254;28;20393;-70
2024/02/18 10:33:36;;;;;;;1999.90;999.90;;;9.60;46.60;;;;;;5033775;28;20462;-70
2024/02/18 10:36:07;;;;;;;1999.90;999.90;;;9.50;66.40;;;;;;5033210;28;20434;-71
2024/02/18 10:38:42;;;;;;;1999.90;999.90;;;9.40;56.40;;;;;;5033311;28;20475;-70
2024/02/18 10:41:12;;;;;;;1999.90;999.90;;;9.20;78.90;;;;;;5033507;28;20745;-69
2024/02/18 10:43:52;;;;;;;1999.90;999.90;;;9.30;68.60;;;;;;5033891;28;20436;-70
2024/02/18 10:46:23;;;;;;;1999.90;999.90;;;9.70;91.30;;;;;;5028366;28;20478;-71
2024/02/18 10:48:55;;;;;;;1999.90;999.90;;;9.00;90.90;;;;;;5033314;28;20417;-71
2024/02/18 10:51:39;;;;;;;1999.90;999.90;;;9.20;97.20;;;;;;5032997;28;20417;-70
2024/02/18 10:54:19;;;;;;;1999.90;999.90;;;9.30;99.90;;;;;;5033572;28;20786;-71
2024/02/18 10:56:45;;;;;;;1999.90;999.90;;;9.60;99.90;;;;;;5024045;28;20860;-71
2024/02/18 10:59:44;;;;;;;1999.90;999.90;;;8.80;99.90;;;;;;5027042;28;20817;-72
2024/02/18 11:02:22;;;;;;;1999.90;999.90;;;9.00;99.90;;;;;;5036618;28;20407;-71
2024/02/18 11:04:49;;;;;;;1999.90;999.90;;;9.10;99.90;;;;;;5034506;28;20439;-70
2024/02/18 11:07:16;;;;;;;1999.90;999.90;;;9.00;99.90;;;;;;5032591;28;20448;-71
2024/02/18 11:09:42;;;;;;;1999.90;999.90;;;9.00;99.90;;;;;;5037288;28;20793;-69
2024/02/18 11:12:09;;;;;;;1999.90;999.90;;;9.20;99.90;;;;;;5033078;28;20451;-69
2024/02/18 11:14:37;;;;;;;1999.90;999.90;;;9.10;99.90;;;;;;5032289;28;20422;-71
2024/02/18 11:17:03;;;;;;;1999.90;999.90;;;9.10;98.40;;;;;;5039703;28;20497;-70
2024/02/18 11:19:31;;;;;;;1999.90;999.90;;;9.20;94.20;;;;;;5054409;28;20931;-71
2024/02/18 11:21:58;;;;;;;1999.90;999.90;;;9.20;85.90;;;;;;5052727;28;20530;-71
2024/02/18 11:24:23;;;;;;;1999.90;999.90;;;9.10;86.70;;;;;;5034860;28;20412;-71
2024/02/18 11:26:49;;;;;;;1999.90;999.90;;;9.30;90.30;;;;;;5032850;28;20454;-72
2024/02/18 11:29:15;;;;;;;1999.90;999.90;;;9.50;90.90;;;;;;5033204;28;20167;-72
2024/02/18 11:31:42;;;;;;;1999.90;999.90;;;9.00;96.10;;;;;;5032325;28;20531;-71
2024/02/18 11:34:08;;;;;;;1999.90;999.90;;;9.30;94.60;;;;;;5040068;28;20409;-70
2024/02/18 11:36:33;;;;;;;1999.90;999.90;;;9.30;67.40;;;;;;5032706;28;20430;-71
2024/02/18 11:39:01;;;;;;;1999.90;999.90;;;9.40;93.30;;;;;;5032186;28;20521;-71
2024/02/18 11:41:30;;;;;;;1999.90;999.90;;;9.40;40.80;;;;;;5031365;28;20200;-71
2024/02/18 11:44:05;;;;;;;1999.90;999.90;;;9.10;92.30;;;;;;5031661;28;20411;-71
2024/02/18 11:46:31;;;;;;;1999.90;999.90;;;9.10;23.50;;;;;;5030723;28;20429;-71
2024/02/18 11:48:58;;;;;;;1999.90;999.90;;;9.40;21.90;;;;;;5031785;28;20420;-71
2024/02/18 11:51:28;;;;;;;1999.90;999.90;;;9.20;99.90;;;;;;5030722;28;20206;-70
2024/02/18 11:53:56;;;;;;;1999.90;999.90;;;9.50;1.00;;;;;;5032439;28;20413;-71
2024/02/18 11:56:22;;;;;;;1999.90;999.90;;;9.40;1.00;;;;;;5031957;28;20436;-71
2024/02/18 11:58:48;;;;;;;1999.90;999.90;;;9.60;1.00;;;;;;5032588;28;20413;-71
2024/02/18 12:01:19;;;;;;;1999.90;999.90;;;9.50;1.00;;;;;;5032484;28;20171;-70
2024/02/18 12:03:48;;;;;;;1999.90;999.90;;;9.30;7.80;;;;;;5033530;28;20428;-70